Time;durP1;ratioP1;P1;durP2;ratioP2;P2;SDS_P1;SDS_P2;PMS_P1;PMS_P2;Temp;Humidity;BMP_temperature;BMP_pressure;BME280_temperature;BME280_humidity;BME280_pressure;Samples;Min_cycle;Max_cycle;Signal;HPM_P1;HPM_P2
2022/04/12 00:01:08;;;;;;;101.93;36.90;;;4.70;96.70;;;;;;5096692;28;20537;-72
2022/04/12 00:03:41;;;;;;;77.55;36.38;;;4.70;96.60;;;;;;5096900;28;20176;-76
2022/04/12 00:06:17;;;;;;;96.35;40.22;;;4.60;96.90;;;;;;5080732;28;20240;-76
2022/04/12 00:08:44;;;;;;;95.00;35.75;;;4.60;97.00;;;;;;5094313;28;20523;-76
2022/04/12 00:11:13;;;;;;;98.03;39.70;;;4.60;97.20;;;;;;5075894;28;20270;-76
2022/04/12 00:13:43;;;;;;;98.35;38.20;;;4.60;97.20;;;;;;5076153;28;20183;-72
2022/04/12 00:16:15;;;;;;;76.38;34.13;;;4.60;97.40;;;;;;5075831;28;20216;-75
2022/04/12 00:21:26;;;;;;;87.30;36.75;;;4.60;97.40;;;;;;5094315;28;20172;-72
2022/04/12 00:23:52;;;;;;;104.47;45.13;;;4.50;98.10;;;;;;5075963;28;20196;-72
2022/04/12 00:26:20;;;;;;;93.70;40.97;;;4.60;97.50;;;;;;5075935;28;20180;-72
2022/04/12 00:28:47;;;;;;;94.45;37.85;;;4.60;97.60;;;;;;5076056;28;20172;-72
2022/04/12 00:31:13;;;;;;;98.40;37.72;;;4.50;97.60;;;;;;5076170;28;20200;-72
2022/04/12 00:33:44;;;;;;;99.88;38.55;;;4.50;98.00;;;;;;5075607;28;20178;-72
2022/04/12 00:36:21;;;;;;;96.45;35.40;;;4.50;97.80;;;;;;5075630;28;20265;-76
2022/04/12 00:38:49;;;;;;;90.10;37.80;;;4.50;97.90;;;;;;5075610;28;20183;-76
2022/04/12 00:41:17;;;;;;;96.43;38.00;;;4.40;98.10;;;;;;5075813;28;20686;-75
2022/04/12 00:43:43;;;;;;;85.03;33.67;;;4.40;98.10;;;;;;5075590;28;20173;-71
2022/04/12 00:46:10;;;;;;;90.75;41.45;;;4.40;98.30;;;;;;5075638;28;20561;-72
2022/04/12 00:48:48;;;;;;;79.47;35.22;;;4.30;98.50;;;;;;5075965;28;20177;-76
2022/04/12 00:51:14;;;;;;;95.32;37.00;;;4.30;98.50;;;;;;5075788;28;20223;-72
2022/04/12 00:53:50;;;;;;;78.22;35.28;;;4.20;98.50;;;;;;5075694;28;20680;-72
2022/04/12 00:56:18;;;;;;;63.90;28.92;;;4.20;98.50;;;;;;5075937;28;20684;-76
2022/04/12 00:58:49;;;;;;;62.88;29.08;;;4.20;98.40;;;;;;5075493;28;20314;-75
2022/04/12 01:01:19;;;;;;;60.38;27.60;;;4.20;98.70;;;;;;5093684;28;20224;-75
2022/04/12 01:03:48;;;;;;;67.18;27.08;;;4.10;99.20;;;;;;5075586;28;20177;-76
2022/04/12 01:06:18;;;;;;;71.80;28.17;;;4.10;99.20;;;;;;5127490;28;20249;-76
2022/04/12 01:08:45;;;;;;;66.72;31.08;;;4.10;99.10;;;;;;5116338;28;20171;-72
2022/04/12 01:11:20;;;;;;;89.88;34.38;;;4.10;99.40;;;;;;5116056;28;20302;-76
2022/04/12 01:13:50;;;;;;;77.63;35.78;;;4.10;99.40;;;;;;5116001;28;20294;-72
2022/04/12 01:16:19;;;;;;;77.95;32.17;;;4.10;99.50;;;;;;5134385;28;20338;-76
2022/04/12 01:18:51;;;;;;;55.30;26.00;;;4.00;99.90;;;;;;5115793;28;20680;-76
2022/04/12 01:21:26;;;;;;;60.83;27.15;;;4.00;99.90;;;;;;5134668;28;20180;-76
2022/04/12 01:23:59;;;;;;;50.60;22.80;;;4.00;99.90;;;;;;5116201;27;20623;-72
2022/04/12 01:26:25;;;;;;;53.03;20.55;;;3.90;99.90;;;;;;5116102;28;20167;-72
2022/04/12 01:28:55;;;;;;;36.78;19.15;;;3.90;99.90;;;;;;5115838;27;20179;-76
2022/04/12 01:31:25;;;;;;;33.50;17.42;;;3.90;99.90;;;;;;5116319;28;20182;-71
2022/04/12 01:34:12;;;;;;;18.50;11.25;;;3.90;99.90;;;;;;5115859;27;20631;-76
2022/04/12 01:36:42;;;;;;;34.70;17.33;;;3.90;99.90;;;;;;5115529;28;20199;-76
2022/04/12 01:39:10;;;;;;;35.17;17.17;;;3.80;99.90;;;;;;5116014;27;20178;-76
2022/04/12 01:41:44;;;;;;;28.52;14.10;;;3.80;99.90;;;;;;5116008;28;20182;-75
2022/04/12 01:44:10;;;;;;;27.25;14.27;;;3.80;99.90;;;;;;5116122;27;20187;-72
2022/04/12 01:46:38;;;;;;;33.53;14.43;;;3.70;99.90;;;;;;5116035;28;20228;-72
2022/04/12 01:49:04;;;;;;;40.70;18.38;;;3.70;99.90;;;;;;5115590;27;20927;-72
2022/04/12 01:51:30;;;;;;;53.95;23.02;;;3.70;99.90;;;;;;5115609;28;20244;-72
2022/04/12 01:54:08;;;;;;;62.50;25.50;;;3.70;99.90;;;;;;5115542;27;20180;-76
2022/04/12 01:56:35;;;;;;;67.13;28.05;;;3.60;99.90;;;;;;5115752;28;20190;-74
2022/04/12 01:59:05;;;;;;;50.83;23.90;;;3.60;99.90;;;;;;5117379;27;20175;-71
2022/04/12 02:01:31;;;;;;;56.22;27.45;;;3.60;99.90;;;;;;5119219;27;20171;-72
2022/04/12 02:03:58;;;;;;;77.97;32.80;;;3.60;99.90;;;;;;5119146;27;20175;-72
2022/04/12 02:06:26;;;;;;;75.47;32.13;;;3.60;99.90;;;;;;5115836;28;20231;-76
2022/04/12 02:08:53;;;;;;;60.08;27.38;;;3.60;99.90;;;;;;5115729;28;20175;-72
2022/04/12 02:11:22;;;;;;;55.78;27.75;;;3.50;99.90;;;;;;5115780;28;20176;-75
2022/04/12 02:13:48;;;;;;;63.70;27.42;;;3.50;99.90;;;;;;5116101;28;20179;-72
2022/04/12 02:16:15;;;;;;;59.87;28.97;;;3.50;99.90;;;;;;5115615;28;20576;-72
2022/04/12 02:18:49;;;;;;;89.55;34.20;;;3.50;99.90;;;;;;5115390;28;20262;-75
2022/04/12 02:21:19;;;;;;;64.43;29.40;;;3.50;99.90;;;;;;5115377;28;20203;-75
2022/04/12 02:23:48;;;;;;;68.40;28.15;;;3.50;99.90;;;;;;5115813;28;20234;-76
2022/04/12 02:26:13;;;;;;;79.72;30.70;;;3.50;99.90;;;;;;5098484;28;20617;-71
2022/04/12 02:28:39;;;;;;;87.20;39.13;;;3.50;99.90;;;;;;5098609;28;20171;-72
2022/04/12 02:31:07;;;;;;;118.03;39.90;;;3.50;99.90;;;;;;5097943;28;20203;-76
2022/04/12 02:33:33;;;;;;;132.68;46.88;;;3.50;99.90;;;;;;5098203;28;20176;-72
2022/04/12 02:36:01;;;;;;;118.22;49.05;;;3.40;99.90;;;;;;5097906;28;20226;-75
2022/04/12 02:38:27;;;;;;;129.23;52.50;;;3.40;99.90;;;;;;5097283;28;20183;-76
2022/04/12 02:41:01;;;;;;;140.18;54.90;;;3.30;99.90;;;;;;5098110;28;20219;-76
2022/04/12 02:43:28;;;;;;;145.48;56.90;;;3.30;99.90;;;;;;5098205;28;20532;-72
2022/04/12 02:45:58;;;;;;;151.77;60.30;;;3.30;99.90;;;;;;5097952;28;20252;-76
2022/04/12 02:48:24;;;;;;;137.60;55.58;;;3.30;99.90;;;;;;5097845;28;20254;-76
2022/04/12 02:50:51;;;;;;;190.30;64.30;;;3.20;99.90;;;;;;5097138;28;20314;-76
2022/04/12 02:53:25;;;;;;;184.18;67.00;;;3.20;99.90;;;;;;5097777;28;20212;-76
2022/04/12 02:55:51;;;;;;;177.60;63.53;;;3.20;99.90;;;;;;5097460;28;20231;-72
2022/04/12 02:58:30;;;;;;;163.02;64.45;;;3.20;99.90;;;;;;5097372;28;20632;-75
2022/04/12 03:00:56;;;;;;;177.65;63.72;;;3.10;99.90;;;;;;5097420;28;20235;-71
2022/04/12 03:03:25;;;;;;;200.63;64.20;;;3.10;99.90;;;;;;5097601;28;20539;-72
2022/04/12 03:05:59;;;;;;;179.43;63.78;;;3.10;99.90;;;;;;5097143;28;20692;-75
2022/04/12 03:08:37;;;;;;;207.32;68.63;;;3.10;99.90;;;;;;5097434;28;20175;-75
2022/04/12 03:11:11;;;;;;;156.63;59.13;;;3.00;99.90;;;;;;5097437;28;20200;-76
2022/04/12 03:13:39;;;;;;;154.90;53.35;;;3.00;99.90;;;;;;5097618;28;20176;-72
2022/04/12 03:16:05;;;;;;;146.27;53.28;;;3.00;99.90;;;;;;5086360;28;20217;-75
2022/04/12 03:18:31;;;;;;;140.30;55.92;;;3.00;99.90;;;;;;5077074;28;20233;-72
2022/04/12 03:20:59;;;;;;;157.30;59.43;;;3.10;99.90;;;;;;5077167;28;20204;-76
2022/04/12 03:23:28;;;;;;;158.18;57.60;;;3.10;99.90;;;;;;5077059;28;20401;-76
2022/04/12 03:26:01;;;;;;;139.48;49.13;;;3.20;99.90;;;;;;5076556;28;20228;-76
2022/04/12 03:28:27;;;;;;;156.23;52.42;;;3.20;99.90;;;;;;5076861;28;20177;-71
2022/04/12 03:30:53;;;;;;;148.93;56.30;;;3.20;99.90;;;;;;5076786;28;20204;-70
2022/04/12 03:33:19;;;;;;;178.90;53.88;;;3.20;99.90;;;;;;5076929;28;20448;-68
2022/04/12 03:35:45;;;;;;;133.80;51.47;;;3.30;99.90;;;;;;5076828;28;20248;-68
2022/04/12 03:38:14;;;;;;;126.47;51.50;;;3.30;99.90;;;;;;5077059;28;20194;-69
2022/04/12 03:40:46;;;;;;;108.07;44.33;;;3.30;99.90;;;;;;5076165;28;20239;-69
2022/04/12 03:43:26;;;;;;;130.07;47.58;;;3.30;99.90;;;;;;5076636;28;20492;-69
2022/04/12 03:45:52;;;;;;;101.30;48.13;;;3.40;99.90;;;;;;5076795;28;20200;-69
2022/04/12 03:48:18;;;;;;;118.55;56.55;;;3.40;99.90;;;;;;5077316;28;20641;-70
2022/04/12 03:50:44;;;;;;;113.50;56.37;;;3.40;99.90;;;;;;5076720;28;20200;-69
2022/04/12 03:53:15;;;;;;;108.65;47.88;;;3.40;99.90;;;;;;5076684;28;20930;-69
2022/04/12 03:55:46;;;;;;;161.13;72.43;;;3.40;99.90;;;;;;5076102;28;20212;-69
2022/04/12 03:58:19;;;;;;;135.55;59.97;;;3.40;99.90;;;;;;5076649;28;20253;-69
2022/04/12 04:00:47;;;;;;;136.15;66.88;;;3.40;99.90;;;;;;5093839;28;20230;-69
2022/04/12 04:03:13;;;;;;;195.10;90.47;;;3.40;99.90;;;;;;5076403;28;20176;-69
2022/04/12 04:05:40;;;;;;;170.90;91.40;;;3.40;99.90;;;;;;5065024;28;20506;-69
2022/04/12 04:08:12;;;;;;;159.23;74.72;;;3.50;99.90;;;;;;5056645;28;20729;-69
2022/04/12 04:10:41;;;;;;;137.10;66.82;;;3.50;99.90;;;;;;5056086;28;20208;-70
2022/04/12 04:13:17;;;;;;;118.95;65.45;;;3.50;99.90;;;;;;5056231;28;20185;-69
2022/04/12 04:15:47;;;;;;;118.57;59.25;;;3.50;99.90;;;;;;5078856;28;20211;-69
2022/04/12 04:18:13;;;;;;;96.63;54.28;;;3.50;99.90;;;;;;5076339;28;20596;-69
2022/04/12 04:20:40;;;;;;;83.85;45.45;;;3.50;99.90;;;;;;5093610;28;20205;-69
2022/04/12 04:23:10;;;;;;;75.20;39.42;;;3.50;99.90;;;;;;5076300;28;20278;-69
2022/04/12 04:25:42;;;;;;;57.60;32.33;;;3.50;99.90;;;;;;5066403;28;20666;-70
2022/04/12 04:28:12;;;;;;;47.55;27.10;;;3.60;99.90;;;;;;5055113;28;20662;-69
2022/04/12 04:30:44;;;;;;;75.95;41.08;;;3.60;99.90;;;;;;5055573;28;20201;-69
2022/04/12 04:33:14;;;;;;;82.22;43.55;;;3.70;99.90;;;;;;5044159;28;20186;-70
2022/04/12 04:35:41;;;;;;;98.88;48.92;;;3.70;99.90;;;;;;5055107;28;20221;-69
2022/04/12 04:38:11;;;;;;;106.90;48.78;;;3.80;99.90;;;;;;5055578;28;20216;-70
2022/04/12 04:40:38;;;;;;;123.07;55.15;;;3.80;99.90;;;;;;5056128;28;20618;-70
2022/04/12 04:43:11;;;;;;;159.75;61.67;;;3.80;99.90;;;;;;5055251;28;20173;-70
2022/04/12 04:45:37;;;;;;;220.43;88.75;;;3.80;99.90;;;;;;5054646;28;20340;-69
2022/04/12 04:48:13;;;;;;;367.70;114.78;;;3.70;99.90;;;;;;5055663;28;20314;-69
2022/04/12 04:50:41;;;;;;;312.08;110.68;;;3.80;99.90;;;;;;5054593;28;20211;-70
2022/04/12 04:53:10;;;;;;;271.45;99.68;;;3.80;99.90;;;;;;5054609;28;20779;-69
2022/04/12 04:55:37;;;;;;;286.38;96.13;;;3.70;99.90;;;;;;5054509;28;20270;-70
2022/04/12 04:58:04;;;;;;;318.75;109.20;;;3.70;99.90;;;;;;5052425;28;20260;-69
2022/04/12 05:00:34;;;;;;;311.23;111.57;;;3.70;99.90;;;;;;5052831;28;20289;-69
2022/04/12 05:03:02;;;;;;;283.63;110.47;;;3.70;99.90;;;;;;5051912;28;20174;-69
2022/04/12 05:05:33;;;;;;;297.73;114.95;;;3.70;99.90;;;;;;5052068;28;20580;-71
2022/04/12 05:08:12;;;;;;;278.85;112.25;;;3.70;99.90;;;;;;5052315;28;20193;-70
2022/04/12 05:10:38;;;;;;;238.38;99.68;;;3.70;99.90;;;;;;5051613;28;20295;-69
2022/04/12 05:13:11;;;;;;;256.57;99.40;;;3.70;99.90;;;;;;5050960;28;20272;-69
2022/04/12 05:15:39;;;;;;;224.90;99.00;;;3.70;99.90;;;;;;5050826;28;20980;-69
2022/04/12 05:18:07;;;;;;;263.20;100.40;;;3.80;99.90;;;;;;5051463;28;20267;-69
2022/04/12 05:20:35;;;;;;;200.05;92.97;;;3.80;99.90;;;;;;5051189;28;21162;-70
2022/04/12 05:23:02;;;;;;;173.52;84.82;;;3.90;99.90;;;;;;5067512;28;20172;-69
2022/04/12 05:25:31;;;;;;;175.13;82.90;;;3.90;99.90;;;;;;5049959;28;20202;-70
2022/04/12 05:27:57;;;;;;;204.47;89.57;;;4.00;99.90;;;;;;5070924;28;20192;-69
2022/04/12 05:30:24;;;;;;;152.55;71.80;;;4.10;99.90;;;;;;5071592;28;20507;-69
2022/04/12 05:32:55;;;;;;;216.90;77.25;;;4.10;99.90;;;;;;5054180;28;20173;-69
2022/04/12 05:35:21;;;;;;;139.60;59.60;;;4.20;99.90;;;;;;5051178;28;20567;-69
2022/04/12 05:37:50;;;;;;;116.27;51.37;;;4.40;99.90;;;;;;5055708;28;20188;-69
2022/04/12 05:40:23;;;;;;;91.47;46.38;;;4.50;99.90;;;;;;5053575;28;20442;-69
2022/04/12 05:42:53;;;;;;;94.03;42.30;;;4.70;99.90;;;;;;5053050;28;20209;-69
2022/04/12 05:45:19;;;;;;;90.53;42.03;;;4.90;99.90;;;;;;5052255;28;20259;-70
2022/04/12 05:47:55;;;;;;;94.55;45.03;;;5.00;99.90;;;;;;5056256;28;20176;-70
2022/04/12 05:50:28;;;;;;;103.00;49.83;;;5.20;99.90;;;;;;5072389;28;20197;-70
2022/04/12 05:52:55;;;;;;;107.93;50.33;;;5.30;99.90;;;;;;5053578;28;20182;-69
2022/04/12 05:55:22;;;;;;;95.55;44.45;;;5.50;99.90;;;;;;5054503;28;20205;-69
2022/04/12 05:57:49;;;;;;;88.15;47.28;;;5.60;99.90;;;;;;5057238;28;20165;-69
2022/04/12 06:00:16;;;;;;;98.50;46.28;;;5.80;99.90;;;;;;5054546;28;20266;-70
2022/04/12 06:02:43;;;;;;;90.57;45.35;;;5.90;99.90;;;;;;5048690;28;20582;-69
2022/04/12 06:05:13;;;;;;;117.35;52.70;;;6.00;99.90;;;;;;5060427;28;20246;-69
2022/04/12 06:07:41;;;;;;;107.53;50.60;;;6.20;99.90;;;;;;5073002;28;20172;-71
2022/04/12 06:10:08;;;;;;;127.18;57.20;;;6.40;99.90;;;;;;5071559;28;20212;-69
2022/04/12 06:12:34;;;;;;;113.10;53.75;;;6.50;99.90;;;;;;5072884;28;20287;-68
2022/04/12 06:15:00;;;;;;;110.53;51.67;;;6.70;99.90;;;;;;5074811;28;20429;-69
2022/04/12 06:17:31;;;;;;;103.00;51.30;;;6.90;99.90;;;;;;5077472;28;20176;-69
2022/04/12 06:20:15;;;;;;;95.00;44.83;;;7.10;99.90;;;;;;5074865;28;20207;-69
2022/04/12 06:22:42;;;;;;;88.32;45.58;;;7.20;99.90;;;;;;5066634;28;20664;-68
2022/04/12 06:25:10;;;;;;;82.18;42.42;;;7.40;99.90;;;;;;5071551;28;20205;-69
2022/04/12 06:27:39;;;;;;;83.05;39.88;;;7.60;99.90;;;;;;5085031;28;20172;-69
2022/04/12 06:30:07;;;;;;;80.13;40.50;;;7.80;99.90;;;;;;5070081;28;20246;-69
2022/04/12 06:32:34;;;;;;;83.30;35.65;;;8.00;99.90;;;;;;5068569;28;20180;-69
2022/04/12 06:35:00;;;;;;;43.33;24.02;;;8.10;99.90;;;;;;5079802;28;20733;-70
2022/04/12 06:37:33;;;;;;;46.78;27.35;;;8.30;99.90;;;;;;5071307;28;20187;-70
2022/04/12 06:40:01;;;;;;;43.33;20.52;;;8.50;99.90;;;;;;5066518;28;20195;-69
2022/04/12 06:42:27;;;;;;;30.23;17.27;;;8.70;99.90;;;;;;5072309;28;20188;-69
2022/04/12 06:44:53;;;;;;;24.57;13.90;;;8.80;99.90;;;;;;5090494;28;20196;-69
2022/04/12 06:47:19;;;;;;;23.95;14.45;;;9.00;99.90;;;;;;5072957;28;20437;-69
2022/04/12 06:49:50;;;;;;;18.97;9.93;;;9.20;99.90;;;;;;5068495;28;20305;-70
2022/04/12 06:52:20;;;;;;;14.93;9.75;;;9.40;99.90;;;;;;5071886;28;20799;-69
2022/04/12 06:54:46;;;;;;;17.58;9.43;;;9.50;99.90;;;;;;5067916;28;20292;-69
2022/04/12 06:57:13;;;;;;;13.35;8.70;;;9.70;99.90;;;;;;5075163;28;20188;-70
2022/04/12 06:59:42;;;;;;;16.02;8.82;;;9.80;99.90;;;;;;5074489;28;20207;-69
2022/04/12 07:02:11;;;;;;;14.50;7.90;;;10.00;99.90;;;;;;5073272;28;20322;-69
2022/04/12 07:04:38;;;;;;;19.33;7.95;;;10.10;99.90;;;;;;5073818;28;20204;-70
2022/04/12 07:07:05;;;;;;;12.77;5.15;;;10.30;99.90;;;;;;5090905;28;20263;-69
2022/04/12 07:09:31;;;;;;;6.53;4.63;;;10.40;99.90;;;;;;5080804;28;20700;-69
2022/04/12 07:11:58;;;;;;;7.28;4.20;;;10.60;99.90;;;;;;5071908;28;20433;-69
2022/04/12 07:14:33;;;;;;;12.35;5.90;;;10.70;99.90;;;;;;5071527;28;20751;-70
2022/04/12 07:17:06;;;;;;;10.10;5.78;;;10.90;98.70;;;;;;5072307;28;20558;-69
2022/04/12 07:19:33;;;;;;;7.93;5.20;;;11.10;98.70;;;;;;5074492;28;20602;-69
2022/04/12 07:21:59;;;;;;;10.82;6.00;;;11.30;96.90;;;;;;5075388;28;20188;-69
2022/04/12 07:24:25;;;;;;;9.15;4.68;;;11.40;96.60;;;;;;5075922;28;20231;-69
2022/04/12 07:26:51;;;;;;;8.63;4.53;;;11.60;95.30;;;;;;5073853;28;20177;-69
2022/04/12 07:29:20;;;;;;;7.38;4.32;;;11.80;94.70;;;;;;5074500;28;20536;-69
2022/04/12 07:31:47;;;;;;;6.15;3.45;;;11.90;93.50;;;;;;5074193;28;20191;-69
2022/04/12 07:34:15;;;;;;;9.73;4.22;;;12.00;93.30;;;;;;5073596;28;20219;-70
2022/04/12 07:36:47;;;;;;;5.75;3.75;;;12.10;92.20;;;;;;5072364;28;20289;-70
2022/04/12 07:39:16;;;;;;;10.40;4.60;;;12.20;92.00;;;;;;5070178;28;20277;-69
2022/04/12 07:41:56;;;;;;;9.25;5.18;;;12.30;91.70;;;;;;5073535;28;20275;-70
2022/04/12 07:44:33;;;;;;;10.00;5.22;;;12.40;91.70;;;;;;5089361;28;20798;-71
2022/04/12 07:46:59;;;;;;;5.63;3.17;;;12.40;91.60;;;;;;5071533;28;20199;-70
2022/04/12 07:49:28;;;;;;;6.77;3.90;;;12.50;90.70;;;;;;5070152;28;20213;-71
2022/04/12 07:51:53;;;;;;;6.55;4.00;;;12.60;90.80;;;;;;5068709;28;20417;-70
2022/04/12 07:54:19;;;;;;;6.40;3.77;;;12.70;90.30;;;;;;5070988;28;20698;-69
2022/04/12 07:56:46;;;;;;;7.73;3.87;;;12.80;89.70;;;;;;5070048;28;20400;-70
2022/04/12 07:59:13;;;;;;;6.25;3.75;;;12.90;90.10;;;;;;5078846;28;20660;-70
2022/04/12 08:01:39;;;;;;;5.88;3.78;;;13.10;89.80;;;;;;5072191;28;20518;-70
2022/04/12 08:04:09;;;;;;;6.13;3.60;;;13.20;89.50;;;;;;5057163;28;20242;-70
2022/04/12 08:06:35;;;;;;;8.57;3.63;;;13.30;90.00;;;;;;5081142;28;20238;-70
2022/04/12 08:09:03;;;;;;;5.40;3.00;;;13.50;88.90;;;;;;5072463;28;20424;-70
2022/04/12 08:11:31;;;;;;;7.03;4.20;;;13.60;88.30;;;;;;5065029;28;20434;-70
2022/04/12 08:13:57;;;;;;;5.23;3.77;;;13.80;87.30;;;;;;5084164;28;20449;-70
2022/04/12 08:16:26;;;;;;;7.87;4.10;;;13.90;87.40;;;;;;5089340;28;20467;-70
2022/04/12 08:18:55;;;;;;;5.10;3.23;;;14.10;86.10;;;;;;5071553;28;20420;-70
2022/04/12 08:21:42;;;;;;;7.53;4.63;;;14.20;86.00;;;;;;5072039;28;20436;-70
2022/04/12 08:24:11;;;;;;;6.47;3.60;;;14.40;84.40;;;;;;5071696;28;21031;-70
2022/04/12 08:26:37;;;;;;;5.23;4.00;;;14.40;83.00;;;;;;5075445;28;20862;-70
2022/04/12 08:29:04;;;;;;;6.10;3.90;;;14.40;82.80;;;;;;5073806;28;20547;-70
2022/04/12 08:31:33;;;;;;;6.90;3.73;;;14.50;82.60;;;;;;5071469;28;20420;-70
2022/04/12 08:34:06;;;;;;;12.17;4.87;;;14.60;84.00;;;;;;5070235;28;20429;-69
2022/04/12 08:36:35;;;;;;;7.53;3.80;;;14.70;83.00;;;;;;5072879;28;20464;-71
2022/04/12 08:39:08;;;;;;;5.33;3.20;;;14.90;82.10;;;;;;5071089;28;20461;-70
2022/04/12 08:41:42;;;;;;;5.93;3.50;;;15.00;82.60;;;;;;5079270;28;20796;-70
2022/04/12 08:44:09;;;;;;;5.83;4.13;;;15.20;81.20;;;;;;5071931;28;20449;-70
2022/04/12 08:46:38;;;;;;;5.53;3.37;;;15.40;80.20;;;;;;5065175;28;20836;-70
2022/04/12 08:49:06;;;;;;;8.30;3.67;;;15.80;79.00;;;;;;5069858;28;20442;-71
2022/04/12 08:51:34;;;;;;;5.70;3.20;;;16.70;79.10;;;;;;5057271;28;20481;-70
2022/04/12 08:54:04;;;;;;;5.57;3.40;;;17.70;76.90;;;;;;5066450;28;20421;-70
2022/04/12 08:56:30;;;;;;;5.30;3.20;;;18.70;72.50;;;;;;5068836;28;20572;-70
2022/04/12 08:58:57;;;;;;;5.40;3.27;;;19.60;70.60;;;;;;5067445;28;20906;-70
2022/04/12 09:01:33;;;;;;;5.20;2.57;;;20.20;68.50;;;;;;5063078;28;20455;-70
2022/04/12 09:04:01;;;;;;;4.73;3.20;;;20.60;66.60;;;;;;5071039;28;20442;-70
2022/04/12 09:06:27;;;;;;;5.90;3.23;;;20.70;64.90;;;;;;5058911;28;20460;-70
2022/04/12 09:09:15;;;;;;;8.77;3.37;;;21.00;64.40;;;;;;5060488;28;20422;-70
2022/04/12 09:12:11;;;;;;;6.23;3.73;;;21.10;63.90;;;;;;5053465;28;20507;-70
2022/04/12 09:14:44;;;;;;;9.67;3.47;;;21.20;63.10;;;;;;5059976;28;21003;-70
2022/04/12 09:17:12;;;;;;;7.80;3.83;;;21.30;62.60;;;;;;5052535;28;20493;-69
2022/04/12 09:19:46;;;;;;;4.40;2.53;;;21.40;62.20;;;;;;5054733;28;20464;-70
2022/04/12 09:22:18;;;;;;;5.40;3.10;;;21.40;62.40;;;;;;5059195;28;20428;-70
2022/04/12 09:24:51;;;;;;;3.37;2.40;;;21.30;61.40;;;;;;5056970;28;20591;-70
2022/04/12 09:27:25;;;;;;;6.37;3.00;;;21.10;61.10;;;;;;5061547;28;20430;-70
2022/04/12 09:30:01;;;;;;;4.80;2.80;;;21.00;62.50;;;;;;5062014;28;20486;-70
2022/04/12 09:32:34;;;;;;;4.30;2.90;;;21.00;62.70;;;;;;5052205;28;20805;-70
2022/04/12 09:35:00;;;;;;;4.50;2.80;;;20.90;63.50;;;;;;5056680;28;21000;-70
2022/04/12 09:37:32;;;;;;;4.53;3.40;;;21.00;62.70;;;;;;5062928;28;20416;-70
2022/04/12 09:40:03;;;;;;;5.43;3.90;;;21.00;62.50;;;;;;5054247;28;20491;-70
2022/04/12 09:42:38;;;;;;;4.50;2.27;;;20.90;61.60;;;;;;5047993;28;20702;-70
2022/04/12 09:45:06;;;;;;;6.23;3.47;;;20.90;62.00;;;;;;5057018;28;20478;-69
2022/04/12 09:47:34;;;;;;;6.03;3.13;;;20.60;62.10;;;;;;5052221;28;20827;-70
2022/04/12 09:50:07;;;;;;;6.00;3.57;;;20.50;63.00;;;;;;5053756;28;20780;-71
2022/04/12 09:52:40;;;;;;;5.83;3.60;;;20.40;63.30;;;;;;5055813;28;20438;-71
2022/04/12 09:55:07;;;;;;;6.07;3.20;;;20.30;64.00;;;;;;5053206;28;20491;-70
2022/04/12 09:57:33;;;;;;;4.33;2.67;;;20.10;62.00;;;;;;5052538;28;20420;-70
2022/04/12 09:59:59;;;;;;;4.60;3.27;;;20.00;62.80;;;;;;5051968;28;20550;-70
2022/04/12 10:02:26;;;;;;;5.10;2.87;;;19.90;63.00;;;;;;5052896;28;20425;-71
2022/04/12 10:04:55;;;;;;;5.23;3.20;;;19.80;63.20;;;;;;5061775;28;20607;-72
2022/04/12 10:07:29;;;;;;;6.27;2.93;;;19.70;63.60;;;;;;5053510;28;20438;-71
2022/04/12 10:09:55;;;;;;;6.23;3.30;;;19.70;64.00;;;;;;5050657;28;20472;-71
2022/04/12 10:12:21;;;;;;;4.23;3.07;;;19.70;63.80;;;;;;5062743;28;20444;-70
2022/04/12 10:14:52;;;;;;;4.20;3.07;;;19.70;63.80;;;;;;5066325;28;20491;-71
2022/04/12 10:17:30;;;;;;;4.53;3.20;;;19.60;63.00;;;;;;5051034;28;20463;-72
2022/04/12 10:19:59;;;;;;;6.50;3.57;;;19.50;63.40;;;;;;5070757;28;20807;-71
2022/04/12 10:22:26;;;;;;;4.40;3.27;;;19.50;63.10;;;;;;5068032;28;20437;-72
2022/04/12 10:24:56;;;;;;;5.43;3.07;;;19.40;63.20;;;;;;5050803;28;20537;-71
2022/04/12 10:27:22;;;;;;;6.63;3.33;;;19.40;63.20;;;;;;5052932;28;20949;-71
2022/04/12 10:30:25;;;;;;;9.77;3.43;;;19.40;63.30;;;;;;5052939;28;20885;-71
2022/04/12 10:33:27;;;;;;;4.40;3.53;;;19.40;63.10;;;;;;5047375;28;20433;-71
2022/04/12 10:36:06;;;;;;;5.47;3.37;;;19.40;64.10;;;;;;5053869;28;20517;-72
2022/04/12 10:38:40;;;;;;;6.47;3.77;;;19.40;63.10;;;;;;5059970;28;20450;-71
2022/04/12 10:41:29;;;;;;;5.17;3.97;;;19.30;63.30;;;;;;5047807;28;20456;-71
2022/04/12 10:43:58;;;;;;;4.10;3.50;;;19.20;63.70;;;;;;5066883;28;20432;-72
2022/04/12 10:46:47;;;;;;;6.83;3.77;;;19.10;63.30;;;;;;5055722;28;20417;-71
2022/04/12 10:49:23;;;;;;;9.00;3.33;;;19.00;63.30;;;;;;5050112;28;20857;-71
2022/04/12 10:52:00;;;;;;;5.97;3.40;;;19.00;64.10;;;;;;5047437;28;20427;-71
2022/04/12 10:54:36;;;;;;;5.37;3.20;;;19.00;63.10;;;;;;5053222;28;20464;-71
2022/04/12 10:57:22;;;;;;;4.50;3.40;;;18.90;63.80;;;;;;5051361;28;20978;-72
2022/04/12 10:59:58;;;;;;;4.63;3.30;;;18.80;63.50;;;;;;5065402;28;20461;-72
2022/04/12 11:02:37;;;;;;;4.73;3.30;;;18.70;63.50;;;;;;5045841;28;20427;-71
2022/04/12 11:05:04;;;;;;;4.30;2.90;;;18.60;63.50;;;;;;5047268;28;21055;-71
2022/04/12 11:07:35;;;;;;;5.80;2.80;;;18.60;64.40;;;;;;5067162;28;21082;-71
2022/04/12 11:10:13;;;;;;;5.87;2.80;;;18.60;64.40;;;;;;5048678;28;20585;-71
2022/04/12 11:12:41;;;;;;;7.13;3.90;;;18.70;65.00;;;;;;5049717;28;20442;-71
2022/04/12 11:15:31;;;;;;;2.97;2.67;;;18.70;64.10;;;;;;5045744;28;21001;-71
2022/04/12 11:18:44;;;;;;;5.33;3.27;;;18.80;64.10;;;;;;5058902;28;20812;-72
2022/04/12 11:21:26;;;;;;;4.97;3.50;;;18.90;64.10;;;;;;5051719;28;20463;-71
2022/04/12 11:24:12;;;;;;;3.10;2.70;;;18.90;64.20;;;;;;5028351;28;20814;-71
2022/04/12 11:26:53;;;;;;;4.13;3.27;;;18.90;65.00;;;;;;5043438;28;20437;-71
2022/04/12 11:29:22;;;;;;;3.83;3.10;;;18.90;65.30;;;;;;5045438;28;20472;-71
2022/04/12 11:31:53;;;;;;;5.57;4.03;;;19.00;65.00;;;;;;5044246;28;20447;-70
2022/04/12 11:34:20;;;;;;;4.97;3.57;;;19.10;63.60;;;;;;5066128;28;20542;-71
2022/04/12 11:36:50;;;;;;;4.60;3.07;;;19.10;63.70;;;;;;5043832;28;20471;-71
2022/04/12 11:39:24;;;;;;;5.90;2.90;;;19.10;63.90;;;;;;5044740;28;21264;-71
2022/04/12 11:41:57;;;;;;;5.07;3.10;;;19.20;66.50;;;;;;5046468;28;20426;-70
2022/04/12 11:44:23;;;;;;;4.53;3.10;;;19.30;65.70;;;;;;5046341;28;20463;-69
2022/04/12 11:47:09;;;;;;;5.83;3.00;;;19.30;64.10;;;;;;5047531;28;20432;-70
2022/04/12 11:49:43;;;;;;;3.97;2.77;;;19.40;65.30;;;;;;5050246;28;20269;-70
2022/04/12 11:52:15;;;;;;;4.60;3.03;;;19.50;64.30;;;;;;5069388;28;20435;-70
2022/04/12 11:54:46;;;;;;;4.60;3.03;;;19.50;64.60;;;;;;5045362;28;20447;-70
2022/04/12 11:57:15;;;;;;;3.63;2.63;;;19.50;64.10;;;;;;5046361;28;20514;-70
2022/04/12 11:59:54;;;;;;;4.70;3.10;;;19.50;63.70;;;;;;5053586;28;20458;-69
2022/04/12 12:02:32;;;;;;;8.30;4.00;;;19.50;63.80;;;;;;5051388;28;20437;-70
2022/04/12 12:05:09;;;;;;;5.10;4.07;;;19.40;63.50;;;;;;5073073;28;20804;-70
2022/04/12 12:07:37;;;;;;;5.47;3.53;;;19.30;63.40;;;;;;5070366;28;20416;-69
2022/04/12 12:10:22;;;;;;;3.93;2.73;;;19.20;63.80;;;;;;5073427;28;20490;-70
2022/04/12 12:12:54;;;;;;;5.33;3.73;;;19.10;64.10;;;;;;5066528;28;20432;-69
2022/04/12 12:15:26;;;;;;;4.80;2.83;;;19.10;64.40;;;;;;5072299;28;20481;-70
2022/04/12 12:17:58;;;;;;;3.40;3.00;;;19.00;64.00;;;;;;5071965;28;20444;-70
2022/04/12 12:20:30;;;;;;;5.00;3.27;;;19.00;63.70;;;;;;5088177;28;20465;-69
2022/04/12 12:23:08;;;;;;;3.30;2.77;;;19.00;64.30;;;;;;5068828;28;20511;-71
2022/04/12 12:25:55;;;;;;;5.10;3.50;;;19.10;64.40;;;;;;5070638;28;20462;-70
2022/04/12 12:28:31;;;;;;;4.53;3.87;;;19.10;63.60;;;;;;5066399;28;20418;-70
2022/04/12 12:31:03;;;;;;;5.47;3.47;;;19.20;63.70;;;;;;5066977;28;20982;-70
2022/04/12 12:33:53;;;;;;;3.70;3.10;;;19.20;64.30;;;;;;5069921;28;20537;-70
2022/04/12 12:36:25;;;;;;;4.93;3.37;;;19.30;64.20;;;;;;5055829;28;20599;-69
2022/04/12 12:38:52;;;;;;;3.87;3.37;;;19.30;64.10;;;;;;5070538;28;20462;-70
2022/04/12 12:41:30;;;;;;;3.33;2.90;;;19.40;64.00;;;;;;5066829;28;20437;-70
2022/04/12 12:44:05;;;;;;;4.30;2.70;;;19.50;64.20;;;;;;5071272;28;20515;-70
2022/04/12 12:46:34;;;;;;;3.67;2.87;;;19.50;63.80;;;;;;5074306;28;20430;-69
2022/04/12 12:49:20;;;;;;;4.17;2.97;;;19.60;63.80;;;;;;5072743;28;20940;-70
2022/04/12 12:51:46;;;;;;;4.00;3.03;;;19.70;63.70;;;;;;5067371;28;20441;-69
2022/04/12 12:54:25;;;;;;;5.90;3.97;;;19.70;63.60;;;;;;5091370;28;20458;-70
2022/04/12 12:56:52;;;;;;;7.70;3.30;;;19.80;63.20;;;;;;5073705;28;20490;-69
2022/04/12 12:59:26;;;;;;;4.00;3.23;;;19.80;63.20;;;;;;5070742;28;20471;-70